createdAt,value
2022-10-07T00:01:15.467Z,59.39
2022-10-07T00:03:43.683Z,59.94
2022-10-07T00:06:14.579Z,59.35
2022-10-07T00:08:44.184Z,58.73
2022-10-07T00:11:14.841Z,57.23
2022-10-07T00:13:44.753Z,57.17
2022-10-07T00:16:17.348Z,56.10
2022-10-07T00:18:46.223Z,56.71
2022-10-07T00:21:16.491Z,57.26
2022-10-07T00:23:45.896Z,57.07
2022-10-07T00:26:16.814Z,56.16
2022-10-07T00:28:45.647Z,58.90
2022-10-07T00:31:17.552Z,59.27
2022-10-07T00:33:46.506Z,58.42
2022-10-07T00:36:17.801Z,60.31
2022-10-07T00:38:46.163Z,60.13
2022-10-07T00:41:19.119Z,60.21
2022-10-07T00:43:47.772Z,61.51
2022-10-07T00:46:27.155Z,59.56
2022-10-07T00:48:56.776Z,59.14
2022-10-07T00:51:25.561Z,60.15
2022-10-07T00:53:56.469Z,60.52
2022-10-07T00:56:26.609Z,58.70
2022-10-07T00:58:55.096Z,59.24
2022-10-07T01:01:25.243Z,59.32
2022-10-07T01:03:54.833Z,59.33
2022-10-07T01:06:23.809Z,58.53
2022-10-07T01:08:54.423Z,57.81
2022-10-07T01:11:35.173Z,58.65
2022-10-07T01:14:10.504Z,57.97
2022-10-07T01:16:49.187Z,56.98
2022-10-07T01:19:40.291Z,59.41
2022-10-07T01:22:23.144Z,58.44
2022-10-07T01:25:01.181Z,59.38
2022-10-07T01:27:31.537Z,59.13
2022-10-07T01:30:05.573Z,60.29
2022-10-07T01:32:38.843Z,61.26
2022-10-07T01:35:11.883Z,59.94
2022-10-07T01:37:46.032Z,60.73
2022-10-07T01:40:19.341Z,63.58
2022-10-07T01:42:49.870Z,63.86
2022-10-07T01:45:22.358Z,66.65
2022-10-07T01:47:51.467Z,66.66
2022-10-07T01:50:24.375Z,64.83
2022-10-07T01:53:06.653Z,63.98
2022-10-07T01:55:50.801Z,65.05
2022-10-07T01:58:40.017Z,64.09
2022-10-07T02:01:18.697Z,65.20
2022-10-07T02:04:08.049Z,63.84
2022-10-07T02:06:45.222Z,64.45
2022-10-07T02:09:24.981Z,64.46
2022-10-07T02:12:00.769Z,65.38
2022-10-07T02:14:39.672Z,64.06
2022-10-07T02:17:14.391Z,63.87
2022-10-07T02:19:47.755Z,64.09
2022-10-07T02:22:18.570Z,65.03
2022-10-07T02:24:49.484Z,64.18
2022-10-07T02:27:21.441Z,64.37
2022-10-07T02:29:54.657Z,63.65
2022-10-07T02:32:25.539Z,64.88
2022-10-07T02:34:58.967Z,63.63
2022-10-07T02:37:32.204Z,63.48
2022-10-07T02:40:01.087Z,63.84
2022-10-07T02:42:36.725Z,64.27
2022-10-07T02:45:16.014Z,63.90
2022-10-07T02:47:50.579Z,64.07
2022-10-07T02:50:24.841Z,67.30
2022-10-07T02:52:56.871Z,66.90
2022-10-07T02:55:28.892Z,65.80
2022-10-07T02:58:00.157Z,65.74
2022-10-07T03:00:32.696Z,65.16
2022-10-07T03:03:02.814Z,64.60
2022-10-07T03:05:30.992Z,64.54
2022-10-07T03:08:02.018Z,63.82
2022-10-07T03:10:30.241Z,65.92
2022-10-07T03:12:58.588Z,64.83
2022-10-07T03:15:27.680Z,65.59
2022-10-07T03:17:57.277Z,64.33
2022-10-07T03:20:25.489Z,65.95
2022-10-07T03:22:53.725Z,67.15
2022-10-07T03:25:21.976Z,66.39
2022-10-07T03:27:50.189Z,64.63
2022-10-07T03:30:24.265Z,64.98
2022-10-07T03:32:53.494Z,65.57
2022-10-07T03:35:23.164Z,65.72
2022-10-07T03:37:51.432Z,65.86
2022-10-07T03:40:20.507Z,67.73
2022-10-07T03:42:50.245Z,67.03
2022-10-07T03:45:20.924Z,68.45
2022-10-07T03:47:49.127Z,69.35
2022-10-07T03:50:17.588Z,71.48
2022-10-07T03:52:47.221Z,70.11
2022-10-07T03:55:16.453Z,69.39
2022-10-07T03:57:58.568Z,69.58
2022-10-07T04:00:28.385Z,68.96
2022-10-07T04:02:56.689Z,68.64
2022-10-07T04:05:24.992Z,69.49
2022-10-07T04:07:54.838Z,68.40
2022-10-07T04:10:23.109Z,69.71
2022-10-07T04:12:52.439Z,72.73
2022-10-07T04:15:21.491Z,70.93
2022-10-07T04:17:50.776Z,70.34
2022-10-07T04:20:19.237Z,70.79
2022-10-07T04:22:47.432Z,70.75
2022-10-07T04:25:35.620Z,69.63
2022-10-07T04:28:06.452Z,69.83
2022-10-07T04:30:40.557Z,70.39
2022-10-07T04:33:08.962Z,70.14
2022-10-07T04:35:39.581Z,68.75
2022-10-07T04:38:10.407Z,67.41
2022-10-07T04:40:44.772Z,68.31
2022-10-07T04:43:24.557Z,68.13
2022-10-07T04:45:54.897Z,67.10
2022-10-07T04:48:24.760Z,66.97
2022-10-07T04:50:53.129Z,70.06
2022-10-07T04:53:22.066Z,68.76
2022-10-07T04:55:52.710Z,69.09
2022-10-07T04:58:21.487Z,68.76
2022-10-07T05:00:51.724Z,68.98
2022-10-07T05:03:21.774Z,67.87
2022-10-07T05:05:51.695Z,68.08
2022-10-07T05:08:22.775Z,68.14
2022-10-07T05:10:55.791Z,68.10
2022-10-07T05:13:24.597Z,67.99
2022-10-07T05:15:54.494Z,71.29
2022-10-07T05:18:23.969Z,69.13
2022-10-07T05:20:52.686Z,67.54
2022-10-07T05:23:27.260Z,67.58
2022-10-07T05:26:04.628Z,66.98
2022-10-07T05:28:33.192Z,68.57
2022-10-07T05:31:07.023Z,66.76
2022-10-07T05:33:35.949Z,66.77
2022-10-07T05:36:04.959Z,66.33
2022-10-07T05:38:33.960Z,64.88
2022-10-07T05:41:05.969Z,62.33
2022-10-07T05:43:36.777Z,62.69
2022-10-07T05:46:06.502Z,62.56
2022-10-07T05:48:39.237Z,63.66
2022-10-07T05:51:08.651Z,68.86
2022-10-07T05:53:41.216Z,70.71
2022-10-07T05:56:12.778Z,70.23
2022-10-07T05:58:41.144Z,69.83
2022-10-07T06:01:14.841Z,67.12
2022-10-07T06:03:43.597Z,64.14
2022-10-07T06:06:11.937Z,61.60
2022-10-07T06:08:40.214Z,59.47
2022-10-07T06:11:29.034Z,59.20
2022-10-07T06:13:57.300Z,57.29
2022-10-07T06:16:26.378Z,56.21
2022-10-07T06:18:55.743Z,54.58
2022-10-07T06:21:28.281Z,54.09
2022-10-07T06:23:58.108Z,53.81
2022-10-07T06:26:28.030Z,52.80
2022-10-07T06:28:56.663Z,50.68
2022-10-07T06:31:25.955Z,49.24
2022-10-07T06:33:54.694Z,49.21
2022-10-07T06:36:23.063Z,49.18
2022-10-07T06:38:52.818Z,48.16
2022-10-07T06:41:21.801Z,46.98
2022-10-07T06:43:55.887Z,48.06
2022-10-07T06:46:24.266Z,47.65
2022-10-07T06:48:52.585Z,58.04
2022-10-07T06:51:22.268Z,52.50
2022-10-07T06:53:53.661Z,44.50
2022-10-07T06:56:22.171Z,48.12
2022-10-07T06:58:51.944Z,43.38
2022-10-07T07:01:20.345Z,44.96
2022-10-07T07:03:49.009Z,46.53
2022-10-07T07:06:17.329Z,47.59
2022-10-07T07:08:46.134Z,45.55
2022-10-07T07:11:32.570Z,43.49
2022-10-07T07:14:03.350Z,41.38
2022-10-07T07:16:32.076Z,41.14
2022-10-07T07:19:03.021Z,40.69
2022-10-07T07:21:31.782Z,40.29
2022-10-07T07:24:01.436Z,40.15
2022-10-07T07:26:30.138Z,39.55
2022-10-07T07:29:00.380Z,41.05
2022-10-07T07:31:31.948Z,39.56
2022-10-07T07:34:02.241Z,41.72
2022-10-07T07:36:33.375Z,39.90
2022-10-07T07:39:04.438Z,39.14
2022-10-07T07:41:35.393Z,39.13
2022-10-07T07:44:06.381Z,37.38
2022-10-07T07:46:39.001Z,37.77
2022-10-07T07:49:07.324Z,39.30
2022-10-07T07:51:35.624Z,39.81
2022-10-07T07:54:03.908Z,37.08
2022-10-07T07:56:32.819Z,35.76
2022-10-07T07:59:02.093Z,36.42
2022-10-07T08:01:32.159Z,37.23
2022-10-07T08:04:03.226Z,36.80
2022-10-07T08:06:31.622Z,36.67
2022-10-07T08:08:59.983Z,36.42
2022-10-07T08:11:28.992Z,35.92
2022-10-07T08:13:57.891Z,35.89
2022-10-07T08:16:29.492Z,35.52
2022-10-07T08:18:58.850Z,35.21
2022-10-07T08:21:33.054Z,34.42
2022-10-07T08:24:04.049Z,33.59
2022-10-07T08:26:34.880Z,33.57
2022-10-07T08:29:03.392Z,34.15
2022-10-07T08:31:32.641Z,33.17
2022-10-07T08:34:03.135Z,30.95
2022-10-07T08:36:34.544Z,33.50
2022-10-07T08:39:03.058Z,33.88
2022-10-07T08:41:54.167Z,34.17
2022-10-07T08:44:27.850Z,33.04
2022-10-07T08:47:02.216Z,32.99
2022-10-07T08:49:40.783Z,32.18
2022-10-07T08:52:25.341Z,32.69
2022-10-07T08:54:54.495Z,32.24
2022-10-07T08:57:37.560Z,31.75
2022-10-07T09:00:07.601Z,30.43
2022-10-07T09:02:45.146Z,29.52
2022-10-07T09:05:22.584Z,28.49
2022-10-07T09:07:55.142Z,29.33
2022-10-07T09:10:32.483Z,28.96
2022-10-07T09:13:04.867Z,29.10
2022-10-07T09:15:40.407Z,30.70
2022-10-07T09:18:18.213Z,29.34
2022-10-07T09:20:52.141Z,29.31
2022-10-07T09:23:24.276Z,28.25
2022-10-07T09:25:53.181Z,28.33
2022-10-07T09:28:27.065Z,28.38
2022-10-07T09:30:55.724Z,29.91
2022-10-07T09:33:25.872Z,28.30
2022-10-07T09:35:57.679Z,26.47
2022-10-07T09:38:37.159Z,26.86
2022-10-07T09:41:16.826Z,26.85
2022-10-07T09:43:56.648Z,27.58
2022-10-07T09:46:40.693Z,26.81
2022-10-07T09:49:37.170Z,25.84
2022-10-07T09:52:07.578Z,25.80
2022-10-07T09:54:38.188Z,25.75
2022-10-07T09:57:07.602Z,25.25
2022-10-07T09:59:37.356Z,24.92
2022-10-07T10:02:22.333Z,23.99
2022-10-07T10:04:52.716Z,25.67
2022-10-07T10:07:26.831Z,24.70
2022-10-07T10:09:58.584Z,23.37
2022-10-07T10:12:27.397Z,22.86
2022-10-07T10:14:57.053Z,22.71
2022-10-07T10:17:30.195Z,23.03
2022-10-07T10:20:32.454Z,22.53
2022-10-07T10:23:03.209Z,23.73
2022-10-07T10:26:09.472Z,22.87
2022-10-07T10:28:45.643Z,23.19
2022-10-07T10:31:25.389Z,22.88
2022-10-07T10:34:02.467Z,22.31
2022-10-07T10:36:34.284Z,20.61
2022-10-07T10:39:07.622Z,22.27
2022-10-07T10:41:48.677Z,21.55
2022-10-07T10:44:49.848Z,21.67
2022-10-07T10:47:25.667Z,21.75
2022-10-07T10:50:06.251Z,19.89
2022-10-07T10:52:49.700Z,19.99
2022-10-07T10:55:39.737Z,20.94
2022-10-07T10:58:25.035Z,20.22
2022-10-07T11:01:06.934Z,19.49
2022-10-07T11:03:50.124Z,20.23
2022-10-07T11:06:20.237Z,18.74
2022-10-07T11:08:52.202Z,19.06
2022-10-07T11:11:22.792Z,21.26
2022-10-07T11:13:59.312Z,20.19
2022-10-07T11:16:31.878Z,20.89
2022-10-07T11:19:06.875Z,20.01
2022-10-07T11:21:39.273Z,19.59
2022-10-07T11:24:15.315Z,19.12
2022-10-07T11:26:46.552Z,21.15
2022-10-07T11:29:30.118Z,21.23
2022-10-07T11:32:05.869Z,21.77
2022-10-07T11:34:45.156Z,21.06
2022-10-07T11:37:19.889Z,21.53
2022-10-07T11:39:48.905Z,21.04
2022-10-07T11:42:24.532Z,20.95
2022-10-07T11:45:01.963Z,20.55
2022-10-07T11:47:36.065Z,21.37
2022-10-07T11:50:10.891Z,20.46
2022-10-07T11:52:43.815Z,21.61
2022-10-07T11:55:22.292Z,19.74
2022-10-07T11:57:55.853Z,19.82
2022-10-07T12:00:29.836Z,18.92
2022-10-07T12:02:58.706Z,20.06
2022-10-07T12:05:58.129Z,19.47
2022-10-07T12:08:32.782Z,19.57
2022-10-07T12:11:45.632Z,19.83
2022-10-07T12:14:44.635Z,20.80
2022-10-07T12:17:30.451Z,21.84
2022-10-07T12:20:53.074Z,21.11
2022-10-07T12:23:44.277Z,20.74
2022-10-07T12:26:51.656Z,20.98
2022-10-07T12:29:48.500Z,21.26
2022-10-07T12:32:57.581Z,20.33
2022-10-07T12:35:51.484Z,21.03
2022-10-07T12:38:27.647Z,20.79
2022-10-07T12:41:06.644Z,21.68
2022-10-07T12:43:48.932Z,21.50
2022-10-07T12:46:21.815Z,21.84
2022-10-07T12:48:59.948Z,20.84
2022-10-07T12:51:31.677Z,20.62
2022-10-07T12:54:01.674Z,20.57
2022-10-07T12:56:31.733Z,21.08
2022-10-07T12:59:49.700Z,22.54
2022-10-07T13:02:49.328Z,21.68
2022-10-07T13:06:02.621Z,22.88
2022-10-07T13:09:10.029Z,21.97
2022-10-07T13:12:07.941Z,21.83
2022-10-07T13:14:44.925Z,21.21
2022-10-07T13:17:29.730Z,20.81
2022-10-07T13:20:08.210Z,21.37
2022-10-07T13:22:37.010Z,21.31
2022-10-07T13:25:09.053Z,20.71
2022-10-07T13:27:38.767Z,20.76
2022-10-07T13:30:32.670Z,21.49
2022-10-07T13:33:15.761Z,22.48
2022-10-07T13:35:44.266Z,21.93
2022-10-07T13:38:25.998Z,22.22
2022-10-07T13:41:02.323Z,21.96
2022-10-07T13:43:33.253Z,22.09
2022-10-07T13:46:05.254Z,21.65
2022-10-07T13:48:43.037Z,22.56
2022-10-07T13:51:21.910Z,21.57
2022-10-07T13:53:55.252Z,22.03
2022-10-07T13:56:28.286Z,22.58
2022-10-07T13:58:58.324Z,21.86
2022-10-07T14:01:29.676Z,21.88
2022-10-07T14:04:26.493Z,20.38
2022-10-07T14:06:58.720Z,21.99
2022-10-07T14:09:43.897Z,21.96
2022-10-07T14:12:17.097Z,21.62
2022-10-07T14:14:47.786Z,22.12
2022-10-07T14:17:30.543Z,21.90
2022-10-07T14:20:05.873Z,22.82
2022-10-07T14:22:38.931Z,21.67
2022-10-07T14:25:18.182Z,21.38
2022-10-07T14:27:56.685Z,22.09
2022-10-07T14:31:01.343Z,20.86
2022-10-07T14:33:56.357Z,21.24
2022-10-07T14:36:24.758Z,21.22
2022-10-07T14:38:55.878Z,23.08
2022-10-07T14:41:24.707Z,22.50
2022-10-07T14:43:55.788Z,22.71
2022-10-07T14:46:26.397Z,23.17
2022-10-07T14:48:55.464Z,23.42
2022-10-07T14:51:27.108Z,22.80
2022-10-07T14:53:58.173Z,24.47
2022-10-07T14:56:29.324Z,24.42
2022-10-07T14:58:59.270Z,24.98
2022-10-07T15:01:29.896Z,24.86
2022-10-07T15:04:01.965Z,28.81
2022-10-07T15:06:30.866Z,25.49
2022-10-07T15:09:00.426Z,33.51
2022-10-07T15:11:29.200Z,27.93
2022-10-07T15:13:58.900Z,26.14
2022-10-07T15:16:28.800Z,27.58
2022-10-07T15:18:57.298Z,28.67
2022-10-07T15:21:29.013Z,26.57
2022-10-07T15:23:57.877Z,30.58
2022-10-07T15:26:26.546Z,28.68
2022-10-07T15:28:59.541Z,27.18
2022-10-07T15:31:30.726Z,28.88
2022-10-07T15:33:59.066Z,28.27
2022-10-07T15:36:29.460Z,29.76
2022-10-07T15:39:02.285Z,28.25
2022-10-07T15:41:36.179Z,28.41
2022-10-07T15:44:07.417Z,29.40
2022-10-07T15:46:37.024Z,29.35
2022-10-07T15:49:05.695Z,28.80
2022-10-07T15:51:35.661Z,39.51
2022-10-07T15:54:04.419Z,29.00
2022-10-07T15:56:33.280Z,38.58
2022-10-07T15:59:02.323Z,30.84
2022-10-07T16:01:32.204Z,42.59
2022-10-07T16:04:03.656Z,34.32
2022-10-07T16:06:33.940Z,30.87
2022-10-07T16:09:03.416Z,38.80
2022-10-07T16:11:33.697Z,36.24
2022-10-07T16:14:03.179Z,39.41
2022-10-07T16:16:32.646Z,32.22
2022-10-07T16:19:02.981Z,36.22
2022-10-07T16:21:32.578Z,34.39
2022-10-07T16:24:03.840Z,35.90
2022-10-07T16:26:33.991Z,36.28
2022-10-07T16:29:21.663Z,36.21
2022-10-07T16:31:57.139Z,34.83
2022-10-07T16:34:29.337Z,35.85
2022-10-07T16:37:00.861Z,37.30
2022-10-07T16:39:29.736Z,37.68
2022-10-07T16:41:59.997Z,38.00
2022-10-07T16:44:29.733Z,37.81
2022-10-07T16:46:59.256Z,38.06
2022-10-07T16:49:30.492Z,39.18
2022-10-07T16:51:59.893Z,39.48
2022-10-07T16:54:30.434Z,39.37
2022-10-07T16:56:58.854Z,40.63
2022-10-07T16:59:27.720Z,40.27
2022-10-07T17:02:02.591Z,40.44
2022-10-07T17:04:35.560Z,40.96
2022-10-07T17:07:06.840Z,41.62
2022-10-07T17:09:35.134Z,42.53
2022-10-07T17:12:04.288Z,40.40
2022-10-07T17:14:33.729Z,40.15
2022-10-07T17:17:02.011Z,41.15
2022-10-07T17:19:30.394Z,41.34
2022-10-07T17:22:01.228Z,40.67
2022-10-07T17:24:30.193Z,40.52
2022-10-07T17:26:58.495Z,42.58
2022-10-07T17:29:27.165Z,40.34
2022-10-07T17:31:55.762Z,40.15
2022-10-07T17:34:24.299Z,39.77
2022-10-07T17:36:52.917Z,39.43
2022-10-07T17:39:22.860Z,39.76
2022-10-07T17:41:51.103Z,39.29
2022-10-07T17:44:21.541Z,39.91
2022-10-07T17:46:50.415Z,39.30
2022-10-07T17:49:18.683Z,38.70
2022-10-07T17:51:46.890Z,39.40
2022-10-07T17:54:15.440Z,39.76
2022-10-07T17:56:45.784Z,40.68
2022-10-07T17:59:14.475Z,40.38
2022-10-07T18:01:42.879Z,40.95
2022-10-07T18:04:13.551Z,41.03
2022-10-07T18:06:43.343Z,42.63
2022-10-07T18:09:15.156Z,42.67
2022-10-07T18:12:02.312Z,43.03
2022-10-07T18:14:53.290Z,41.98
2022-10-07T18:17:22.631Z,43.18
2022-10-07T18:19:50.925Z,42.20
2022-10-07T18:22:19.393Z,42.51
2022-10-07T18:24:47.709Z,42.71
2022-10-07T18:27:17.609Z,42.64
2022-10-07T18:29:45.978Z,43.00
2022-10-07T18:32:14.188Z,44.38
2022-10-07T18:34:42.411Z,43.77
2022-10-07T18:37:10.729Z,43.36
2022-10-07T18:39:39.086Z,45.73
2022-10-07T18:42:08.336Z,45.54
2022-10-07T18:44:38.052Z,43.17
2022-10-07T18:47:06.546Z,52.30
2022-10-07T18:49:35.030Z,44.61
2022-10-07T18:52:05.265Z,44.11
2022-10-07T18:54:33.485Z,44.06
2022-10-07T18:57:01.806Z,43.73
2022-10-07T18:59:30.120Z,44.77
2022-10-07T19:01:59.800Z,45.72
2022-10-07T19:04:30.116Z,45.76
2022-10-07T19:06:58.360Z,45.37
2022-10-07T19:09:26.674Z,44.43
2022-10-07T19:11:54.975Z,44.40
2022-10-07T19:14:26.008Z,46.18
2022-10-07T19:16:54.400Z,45.42
2022-10-07T19:19:25.749Z,45.72
2022-10-07T19:21:55.352Z,45.77
2022-10-07T19:24:45.710Z,44.68
2022-10-07T19:27:14.355Z,45.15
2022-10-07T19:29:42.568Z,44.88
2022-10-07T19:32:10.953Z,45.76
2022-10-07T19:34:40.660Z,45.63
2022-10-07T19:37:08.922Z,45.94
2022-10-07T19:39:37.393Z,46.34
2022-10-07T19:42:05.866Z,46.87
2022-10-07T19:44:34.428Z,46.81
2022-10-07T19:47:04.328Z,46.84
2022-10-07T19:49:32.605Z,47.10
2022-10-07T19:52:02.243Z,48.40
2022-10-07T19:54:35.856Z,49.00
2022-10-07T19:57:04.330Z,48.95
2022-10-07T19:59:32.525Z,49.60
2022-10-07T20:02:01.362Z,49.92
2022-10-07T20:04:30.187Z,50.93
2022-10-07T20:06:58.854Z,50.96
2022-10-07T20:09:28.570Z,51.45
2022-10-07T20:11:56.932Z,50.23
2022-10-07T20:14:25.177Z,50.63
2022-10-07T20:16:56.327Z,51.90
2022-10-07T20:19:25.328Z,51.51
2022-10-07T20:21:53.665Z,51.39
2022-10-07T20:24:21.906Z,50.98
2022-10-07T20:26:52.808Z,52.02
2022-10-07T20:29:25.575Z,50.95
2022-10-07T20:31:54.055Z,50.43
2022-10-07T20:34:22.813Z,51.01
2022-10-07T20:36:51.494Z,49.98
2022-10-07T20:39:38.726Z,48.79
2022-10-07T20:42:24.677Z,49.45
2022-10-07T20:44:53.553Z,50.38
2022-10-07T20:47:23.017Z,50.08
2022-10-07T20:49:51.780Z,50.11
2022-10-07T20:52:22.072Z,50.21
2022-10-07T20:54:51.241Z,50.24
2022-10-07T20:57:22.336Z,50.48
2022-10-07T20:59:51.356Z,50.71
2022-10-07T21:02:21.357Z,50.37
2022-10-07T21:04:49.818Z,50.62
2022-10-07T21:07:19.203Z,50.22
2022-10-07T21:09:47.876Z,50.18
2022-10-07T21:12:18.724Z,51.98
2022-10-07T21:14:48.696Z,51.74
2022-10-07T21:17:17.168Z,53.46
2022-10-07T21:19:45.898Z,54.13
2022-10-07T21:22:14.117Z,52.83
2022-10-07T21:24:42.320Z,53.08
2022-10-07T21:27:10.900Z,54.94
2022-10-07T21:29:41.025Z,54.19
2022-10-07T21:32:12.214Z,54.98
2022-10-07T21:34:40.492Z,55.71
2022-10-07T21:37:08.672Z,54.53
2022-10-07T21:39:38.350Z,54.54
2022-10-07T21:42:06.847Z,54.30
2022-10-07T21:44:35.747Z,55.26
2022-10-07T21:47:05.236Z,55.09
2022-10-07T21:49:34.961Z,55.20
2022-10-07T21:52:03.170Z,55.67
2022-10-07T21:54:31.557Z,55.14
2022-10-07T21:56:59.826Z,54.05
2022-10-07T21:59:28.060Z,54.23
2022-10-07T22:01:56.365Z,54.06
2022-10-07T22:04:25.035Z,54.92
2022-10-07T22:07:12.100Z,54.07
2022-10-07T22:09:40.365Z,54.29
2022-10-07T22:12:08.972Z,55.25
2022-10-07T22:14:37.243Z,55.69
2022-10-07T22:17:05.520Z,56.35
2022-10-07T22:19:35.722Z,55.29
2022-10-07T22:22:06.674Z,55.81
2022-10-07T22:24:35.516Z,56.20
2022-10-07T22:27:04.555Z,57.12
2022-10-07T22:29:32.900Z,57.91
2022-10-07T22:32:01.169Z,56.61
2022-10-07T22:34:47.090Z,56.14
2022-10-07T22:37:16.759Z,55.84
2022-10-07T22:39:44.940Z,55.79
2022-10-07T22:42:13.172Z,55.56
2022-10-07T22:44:41.382Z,55.51
2022-10-07T22:47:09.640Z,56.46
2022-10-07T22:49:37.922Z,56.06
2022-10-07T22:52:06.153Z,57.34
2022-10-07T22:54:35.809Z,57.84
2022-10-07T22:57:07.112Z,58.31
2022-10-07T22:59:35.461Z,57.00
2022-10-07T23:02:03.653Z,57.60
2022-10-07T23:04:31.877Z,56.91
2022-10-07T23:07:00.126Z,57.89
2022-10-07T23:09:28.375Z,57.39
2022-10-07T23:11:58.109Z,57.86
2022-10-07T23:14:26.393Z,57.43
2022-10-07T23:16:54.650Z,58.36
2022-10-07T23:19:22.902Z,59.54
2022-10-07T23:21:51.149Z,60.61
2022-10-07T23:24:19.396Z,61.58
2022-10-07T23:26:47.678Z,59.99
2022-10-07T23:29:17.729Z,59.35
2022-10-07T23:31:46.017Z,57.88
2022-10-07T23:34:15.135Z,58.80
2022-10-07T23:36:43.526Z,60.09
2022-10-07T23:39:12.021Z,61.42
2022-10-07T23:41:40.376Z,60.51
2022-10-07T23:44:08.584Z,61.27
2022-10-07T23:46:39.802Z,60.31
2022-10-07T23:49:08.118Z,61.10
2022-10-07T23:51:36.398Z,61.91
2022-10-07T23:54:05.585Z,62.54
2022-10-07T23:56:34.177Z,63.38
2022-10-07T23:59:02.932Z,62.24
